Airfield :
LOGIN :

Register | Disclaimer

   EN    FR    IT 

 










Legend :    VFR   Marginal VFR   IFR   Intensive IFR   Very Intensive IFR
Visi :
Ceiling :
>= 8 km
>= 3000ft
5 to 8 km
1000 to 3000 ft
1500m to 5 km
500 to 1000 ft
800 to 1500m
200 to 500 ft
< 800m
< 200 ft
Symbols :   Thunderstorms  Fog  Heavy snow  Heavy precipitations  Wind > 20 kt
SIGMETs :     Misc.  Thunderstorms  Icing  Turbulence  Mountain Waves  Volcanic Ashes







- Airport Elevation : 1115 ft
- IATA code : GRZ


LOWG - Graz

CURRENT METAR :
  • 201420Z 35012KT 9999 FEW045 BKN060 14/04 Q1016 NOSIG

EXPIRED METARs :
  • 201350Z 35008KT 9999 FEW045 BKN060 14/06 Q1016 NOSIG
  • 201320Z 01011KT 9999 FEW045 SCT060 BKN100 15/05 Q1016 NOSIG
  • 201250Z 36012KT 9999 FEW040 BKN100 15/05 Q1016 NOSIG
  • 201220Z 35013KT 310V010 9999 FEW040 BKN100 15/04 Q1015 NOSIG
  • 201150Z 35013KT 310V020 9999 FEW040 BKN100 15/04 Q1015 NOSIG

TAF TAF LOWG
Valid from the 20 at 12:00 until the 21 at 12:00 UTC


201115Z 2012/2112 34010KT 9999 FEW040 BKN090 TX17/2112Z TN09/2103Z
BECMG 2017/2019 32004KT CAVOK
BECMG 2108/2110 33008KT 9999 FEW060
No reported NOTAMs for that airfield.
2 SIGMETs reported for the Wien FIR (LOVV) :
 
Severe mountain waves
LOVV SIGMET 5 VALID 201417/201600 LOWW
LOVV WIEN FIR SEV MTW FCST WI N4655 E01025 - N4725 E01430 - N4630 E01340 - N4655 E01025 FL100/370 STNR NC=
Severe icing
LOVV SIGMET 4 VALID 201351/201530 LOWW
LOVV WIEN FIR SEV ICE OBS N OF N4730 AND E OF E01520 8000FT/FL130 STNR NC=



MET'MAP, your aeronautical weather chart ! - Copyright ORBIFLY December 2007 - Disclaimer

ORBIFLY MET'MAP TEAM :

Programming & Development : Alexandra Zaïnal
Concept & Development : Baudouin d'Aumeries
Co-Development & Prog : Marc-Olivier Méhu
Technical & hardware support : Manuel Goepfert

Contact : metmap@orbifly.com




SOURCES & CREDITS :

   NOAA